Time;durP1;ratioP1;P1;durP2;ratioP2;P2;SDS_P1;SDS_P2;PMS_P1;PMS_P2;Temp;Humidity;BMP_temperature;BMP_pressure;BME280_temperature;BME280_humidity;BME280_pressure;Samples;Min_cycle;Max_cycle;Signal;HPM_P1;HPM_P2
2023/09/02 00:01:49;;;;;;;3.80;3.50;;;;;;;;;;5024956;28;20579;-70
2023/09/02 00:04:17;;;;;;;4.10;3.70;;;;;;;;;;5024977;28;20474;-72
2023/09/02 00:06:44;;;;;;;4.10;3.70;;;;;;;;;;5025141;28;20413;-70
2023/09/02 00:09:12;;;;;;;3.90;3.60;;;;;;;;;;5025917;28;20423;-70
2023/09/02 00:11:40;;;;;;;4.10;3.80;;;;;;;;;;5023562;28;20441;-71
2023/09/02 00:14:07;;;;;;;4.20;3.80;;;;;;;;;;5023293;28;20640;-70
2023/09/02 00:16:34;;;;;;;4.50;4.10;;;;;;;;;;5029046;28;20433;-70
2023/09/02 00:19:02;;;;;;;4.20;3.80;;;;;;;;;;5030821;28;20426;-71
2023/09/02 00:21:29;;;;;;;4.10;3.78;;;;;;;;;;5025037;28;20445;-70
2023/09/02 00:24:02;;;;;;;4.90;4.40;;;;;;;;;;5030404;28;20427;-71
2023/09/02 00:26:29;;;;;;;6.47;4.67;;;;;;;;;;5033036;28;20439;-70
2023/09/02 00:28:57;;;;;;;5.95;4.95;;;;;;;;;;5031028;28;20437;-70
2023/09/02 00:31:24;;;;;;;4.63;4.20;;;;;;;;;;5024319;28;20547;-70
2023/09/02 00:33:52;;;;;;;5.45;4.90;;;;;;;;;;5024401;28;20433;-70
2023/09/02 00:36:19;;;;;;;5.13;4.70;;;;;;;;;;5024475;28;20435;-71
2023/09/02 00:38:46;;;;;;;4.97;4.57;;;;;;;;;;5023642;28;20416;-70
2023/09/02 00:41:14;;;;;;;6.50;4.68;;;;;;;;;;5023429;28;20437;-71
2023/09/02 00:43:41;;;;;;;5.13;4.47;;;;;;;;;;5022206;28;20793;-72
2023/09/02 00:46:10;;;;;;;5.28;4.88;;;;;;;;;;5023310;28;20438;-71
2023/09/02 00:48:37;;;;;;;5.53;5.00;;;;;;;;;;5023816;28;20441;-70
2023/09/02 00:51:04;;;;;;;5.13;4.60;;;;;;;;;;5023979;28;21746;-69
2023/09/02 00:53:31;;;;;;;5.32;4.90;;;;;;;;;;5024237;28;20416;-69
2023/09/02 00:55:58;;;;;;;6.05;5.10;;;;;;;;;;5022758;28;20427;-71
2023/09/02 00:58:25;;;;;;;6.53;5.93;;;;;;;;;;5023003;28;20436;-69
2023/09/02 01:00:52;;;;;;;5.80;5.20;;;;;;;;;;5023734;28;20443;-69
2023/09/02 01:03:21;;;;;;;6.03;5.53;;;;;;;;;;5023212;28;20443;-69
2023/09/02 01:05:48;;;;;;;5.47;4.97;;;;;;;;;;5023680;28;20429;-71
2023/09/02 01:08:18;;;;;;;5.65;5.22;;;;;;;;;;5023936;28;20421;-71
2023/09/02 01:10:46;;;;;;;6.45;5.88;;;;;;;;;;5022717;28;20440;-71
2023/09/02 01:13:13;;;;;;;6.10;5.60;;;;;;;;;;5023006;28;20433;-71
2023/09/02 01:15:40;;;;;;;6.70;6.00;;;;;;;;;;5022670;28;21099;-71
2023/09/02 01:18:07;;;;;;;6.00;5.40;;;;;;;;;;5022928;28;20567;-71
2023/09/02 01:20:42;;;;;;;5.60;5.10;;;;;;;;;;5022308;28;21015;-70
2023/09/02 01:23:15;;;;;;;5.70;5.20;;;;;;;;;;5022441;28;20432;-71
2023/09/02 01:26:03;;;;;;;6.82;6.20;;;;;;;;;;5022420;28;20420;-71
2023/09/02 01:28:33;;;;;;;6.47;5.88;;;;;;;;;;5023670;28;20492;-69
2023/09/02 01:31:01;;;;;;;6.72;6.00;;;;;;;;;;5022345;28;20472;-69
2023/09/02 01:33:29;;;;;;;8.98;5.78;;;;;;;;;;5021991;28;20713;-71
2023/09/02 01:35:57;;;;;;;7.30;5.70;;;;;;;;;;5022179;28;21365;-71
2023/09/02 01:38:26;;;;;;;7.28;6.57;;;;;;;;;;5021888;28;20919;-69
2023/09/02 01:40:55;;;;;;;6.50;5.90;;;;;;;;;;5021190;28;20439;-69
2023/09/02 01:43:23;;;;;;;6.80;6.10;;;;;;;;;;5022014;28;20825;-69
2023/09/02 01:45:52;;;;;;;6.30;5.70;;;;;;;;;;5021859;28;20441;-69
2023/09/02 01:48:20;;;;;;;7.03;6.43;;;;;;;;;;5021978;28;20849;-69
2023/09/02 01:50:47;;;;;;;7.20;6.50;;;;;;;;;;5022367;28;20455;-71
2023/09/02 01:53:14;;;;;;;6.88;6.18;;;;;;;;;;5021847;28;20855;-71
2023/09/02 01:55:42;;;;;;;6.78;6.18;;;;;;;;;;5022481;28;20418;-69
2023/09/02 01:58:09;;;;;;;7.53;6.73;;;;;;;;;;5021975;28;21032;-69
2023/09/02 02:00:38;;;;;;;7.10;6.30;;;;;;;;;;5022298;28;20433;-68
2023/09/02 02:03:09;;;;;;;6.75;6.15;;;;;;;;;;5022573;28;20851;-70
2023/09/02 02:05:39;;;;;;;7.22;6.30;;;;;;;;;;5021095;28;20566;-71
2023/09/02 02:08:10;;;;;;;6.82;6.22;;;;;;;;;;5024715;28;20436;-70
2023/09/02 02:10:39;;;;;;;6.90;6.30;;;;;;;;;;5021370;28;20456;-71
2023/09/02 02:13:06;;;;;;;6.97;6.27;;;;;;;;;;5020689;28;20531;-71
2023/09/02 02:15:33;;;;;;;6.10;5.60;;;;;;;;;;5021295;28;20433;-71
2023/09/02 02:18:00;;;;;;;6.70;6.00;;;;;;;;;;5021162;28;20440;-71
2023/09/02 02:20:30;;;;;;;7.40;6.20;;;;;;;;;;5022344;28;20434;-70
2023/09/02 02:22:57;;;;;;;6.63;6.03;;;;;;;;;;5021356;28;20993;-70
2023/09/02 02:25:24;;;;;;;6.90;6.20;;;;;;;;;;5021890;28;20417;-69
2023/09/02 02:27:51;;;;;;;6.33;5.83;;;;;;;;;;5020796;28;20459;-69
2023/09/02 02:30:18;;;;;;;6.78;6.18;;;;;;;;;;5020983;28;20452;-69
2023/09/02 02:32:46;;;;;;;6.50;5.90;;;;;;;;;;5022228;28;20429;-69
2023/09/02 02:35:14;;;;;;;5.97;5.38;;;;;;;;;;5024616;28;20434;-69
2023/09/02 02:37:43;;;;;;;6.70;5.90;;;;;;;;;;5022555;28;20599;-70
2023/09/02 02:40:10;;;;;;;6.20;5.60;;;;;;;;;;5021401;28;20951;-71
2023/09/02 02:42:37;;;;;;;6.50;5.90;;;;;;;;;;5021945;28;20441;-71
2023/09/02 02:45:05;;;;;;;6.60;6.00;;;;;;;;;;5022067;28;20802;-70
2023/09/02 02:47:32;;;;;;;7.20;6.50;;;;;;;;;;5022755;28;20428;-70
2023/09/02 02:49:59;;;;;;;6.90;6.30;;;;;;;;;;5055969;28;20438;-69
2023/09/02 02:52:26;;;;;;;7.10;6.40;;;;;;;;;;5039736;28;20435;-69
2023/09/02 02:54:54;;;;;;;7.05;6.10;;;;;;;;;;5026998;28;20441;-72
2023/09/02 02:57:21;;;;;;;6.75;6.15;;;;;;;;;;5027589;28;20439;-70
2023/09/02 02:59:48;;;;;;;8.13;6.55;;;;;;;;;;5027410;28;20793;-69
2023/09/02 03:02:15;;;;;;;7.10;6.47;;;;;;;;;;5029251;28;20467;-70
2023/09/02 03:04:46;;;;;;;7.43;6.72;;;;;;;;;;5035850;28;20974;-69
2023/09/02 03:07:13;;;;;;;7.10;6.40;;;;;;;;;;5026935;28;21027;-71
2023/09/02 03:09:40;;;;;;;7.53;6.82;;;;;;;;;;5025835;28;20441;-69
2023/09/02 03:12:09;;;;;;;6.78;6.07;;;;;;;;;;5026128;28;20425;-70
2023/09/02 03:14:36;;;;;;;7.13;6.43;;;;;;;;;;5025831;28;20440;-71
2023/09/02 03:17:03;;;;;;;6.80;5.80;;;;;;;;;;5024728;28;20460;-69
2023/09/02 03:19:30;;;;;;;6.30;5.70;;;;;;;;;;5024652;28;20492;-71
2023/09/02 03:21:57;;;;;;;6.65;6.00;;;;;;;;;;5025464;28;20414;-71
2023/09/02 03:24:24;;;;;;;6.25;5.65;;;;;;;;;;5025637;28;20452;-70
2023/09/02 03:26:51;;;;;;;6.22;5.63;;;;;;;;;;5026418;28;20459;-71
2023/09/02 03:29:20;;;;;;;5.60;5.10;;;;;;;;;;5024426;28;21593;-71
2023/09/02 03:31:47;;;;;;;6.20;5.30;;;;;;;;;;5024125;28;20445;-72
2023/09/02 03:34:14;;;;;;;5.33;4.83;;;;;;;;;;5024448;28;20421;-71
2023/09/02 03:36:40;;;;;;;6.07;5.47;;;;;;;;;;5024450;28;20432;-70
2023/09/02 03:39:07;;;;;;;6.07;5.00;;;;;;;;;;5024627;28;21135;-70
2023/09/02 03:41:37;;;;;;;5.97;5.47;;;;;;;;;;5024964;28;20983;-70
2023/09/02 03:44:04;;;;;;;5.60;5.10;;;;;;;;;;5023927;28;21034;-70
2023/09/02 03:46:32;;;;;;;5.40;4.90;;;;;;;;;;5024377;28;20446;-70
2023/09/02 03:49:00;;;;;;;6.35;5.75;;;;;;;;;;5024634;28;20911;-70
2023/09/02 03:51:27;;;;;;;6.30;5.70;;;;;;;;;;5024973;28;20915;-70
2023/09/02 03:53:54;;;;;;;5.97;5.47;;;;;;;;;;5024363;28;20942;-70
2023/09/02 03:56:21;;;;;;;6.60;5.90;;;;;;;;;;5049281;22;20589;-70
2023/09/02 03:58:48;;;;;;;6.68;6.05;;;;;;;;;;5046283;28;20435;-71
2023/09/02 04:01:15;;;;;;;5.80;5.30;;;;;;;;;;5047252;28;20437;-70
2023/09/02 04:03:44;;;;;;;5.90;5.40;;;;;;;;;;5046413;28;21285;-70
2023/09/02 04:06:11;;;;;;;5.90;5.40;;;;;;;;;;5046256;28;20440;-70
2023/09/02 04:08:38;;;;;;;6.57;5.97;;;;;;;;;;5030901;28;20443;-70
2023/09/02 04:11:05;;;;;;;6.22;5.72;;;;;;;;;;5028839;28;20440;-71
2023/09/02 04:13:32;;;;;;;6.47;5.90;;;;;;;;;;5028082;28;20413;-70
2023/09/02 04:16:00;;;;;;;5.60;5.20;;;;;;;;;;5028708;28;20444;-70
2023/09/02 04:18:27;;;;;;;6.45;5.85;;;;;;;;;;5028353;28;20443;-70
2023/09/02 04:20:56;;;;;;;6.35;5.75;;;;;;;;;;5028150;28;20435;-70
2023/09/02 04:23:23;;;;;;;6.70;6.10;;;;;;;;;;5030012;28;20518;-70
2023/09/02 04:25:51;;;;;;;6.90;6.20;;;;;;;;;;5028697;28;20520;-70
2023/09/02 04:28:18;;;;;;;7.63;6.93;;;;;;;;;;5028636;28;20455;-70
2023/09/02 04:30:45;;;;;;;7.43;6.72;;;;;;;;;;5028590;28;20442;-70
2023/09/02 04:33:13;;;;;;;8.35;7.55;;;;;;;;;;5028694;28;20944;-72
2023/09/02 04:35:40;;;;;;;8.90;7.43;;;;;;;;;;5027779;28;20458;-70
2023/09/02 04:38:09;;;;;;;9.23;7.72;;;;;;;;;;5028524;28;20413;-70
2023/09/02 04:40:37;;;;;;;9.73;8.40;;;;;;;;;;5027295;28;20444;-71
2023/09/02 04:43:05;;;;;;;11.77;8.73;;;;;;;;;;5027107;28;20474;-72
2023/09/02 04:45:33;;;;;;;13.57;9.90;;;;;;;;;;5027495;28;20535;-71
2023/09/02 04:48:00;;;;;;;15.73;10.35;;;;;;;;;;5029648;28;20429;-70
2023/09/02 04:50:27;;;;;;;16.67;10.20;;;;;;;;;;5031014;28;20437;-69
2023/09/02 04:52:56;;;;;;;16.30;10.70;;;;;;;;;;5028220;28;20497;-70
2023/09/02 04:55:25;;;;;;;15.27;11.52;;;;;;;;;;5029113;28;22507;-70
2023/09/02 04:57:52;;;;;;;17.40;11.40;;;;;;;;;;5028504;28;20433;-70
2023/09/02 05:00:20;;;;;;;19.52;11.80;;;;;;;;;;5028586;28;20887;-70
2023/09/02 05:02:47;;;;;;;22.40;11.30;;;;;;;;;;5028395;28;20764;-70
2023/09/02 05:05:14;;;;;;;19.45;12.13;;;;;;;;;;5067133;28;20506;-69
2023/09/02 05:07:41;;;;;;;18.33;12.03;;;;;;;;;;5065689;28;20493;-77
2023/09/02 05:10:09;;;;;;;23.83;12.40;;;;;;;;;;5068362;28;20406;-70
2023/09/02 05:12:37;;;;;;;23.40;12.63;;;;;;;;;;5068438;28;20431;-69
2023/09/02 05:15:05;;;;;;;23.50;13.15;;;;;;;;;;5068441;28;20428;-70
2023/09/02 05:17:32;;;;;;;25.00;13.75;;;;;;;;;;5067176;28;20427;-68
2023/09/02 05:19:59;;;;;;;22.55;12.77;;;;;;;;;;5071604;28;20424;-69
2023/09/02 05:22:26;;;;;;;20.65;12.95;;;;;;;;;;5073709;28;20853;-73
2023/09/02 05:24:53;;;;;;;23.42;13.05;;;;;;;;;;5066645;28;20929;-69
2023/09/02 05:27:20;;;;;;;22.23;12.67;;;;;;;;;;5067076;28;20411;-69
2023/09/02 05:29:49;;;;;;;21.38;12.77;;;;;;;;;;5067499;28;20408;-69
2023/09/02 05:32:17;;;;;;;20.05;12.02;;;;;;;;;;5067551;28;20439;-69
2023/09/02 05:34:44;;;;;;;20.13;13.15;;;;;;;;;;5066831;28;20932;-70
2023/09/02 05:37:11;;;;;;;23.63;13.07;;;;;;;;;;5068401;28;20458;-70
2023/09/02 05:39:38;;;;;;;17.90;11.30;;;;;;;;;;5068339;28;20414;-69
2023/09/02 05:42:05;;;;;;;20.70;12.00;;;;;;;;;;5067844;28;20411;-70
2023/09/02 05:44:34;;;;;;;19.83;11.40;;;;;;;;;;5068467;28;20435;-70
2023/09/02 05:47:02;;;;;;;19.13;11.88;;;;;;;;;;5068518;28;20420;-70
2023/09/02 05:49:30;;;;;;;20.65;12.55;;;;;;;;;;5068449;28;20485;-70
2023/09/02 05:51:57;;;;;;;22.00;12.00;;;;;;;;;;5067053;28;20431;-70
2023/09/02 05:54:24;;;;;;;19.50;12.10;;;;;;;;;;5053798;28;20425;-69
2023/09/02 05:56:51;;;;;;;16.52;10.50;;;;;;;;;;5062680;28;20434;-69
2023/09/02 05:59:18;;;;;;;17.23;11.53;;;;;;;;;;5065999;28;20435;-69
2023/09/02 06:01:46;;;;;;;17.92;11.55;;;;;;;;;;5062478;28;20435;-68
2023/09/02 06:04:15;;;;;;;17.85;11.65;;;;;;;;;;5065521;28;20513;-69
2023/09/02 06:06:42;;;;;;;19.05;10.82;;;;;;;;;;5065364;28;20428;-69
2023/09/02 06:09:10;;;;;;;18.95;12.75;;;;;;;;;;5065982;28;20435;-69
2023/09/02 06:11:37;;;;;;;17.27;11.60;;;;;;;;;;5059974;28;20848;-69
2023/09/02 06:14:04;;;;;;;13.57;10.57;;;;;;;;;;5066828;28;20931;-69
2023/09/02 06:16:31;;;;;;;15.05;10.40;;;;;;;;;;5066829;28;20446;-69
2023/09/02 06:18:58;;;;;;;12.70;10.13;;;;;;;;;;5067336;28;20420;-68
2023/09/02 06:21:26;;;;;;;10.20;8.48;;;;;;;;;;5067256;28;20607;-68
2023/09/02 06:23:53;;;;;;;7.45;6.10;;;;;;;;;;5066842;28;20437;-68
2023/09/02 06:26:20;;;;;;;8.87;7.00;;;;;;;;;;5070004;28;20496;-68
2023/09/02 06:28:47;;;;;;;7.20;5.90;;;;;;;;;;5068440;28;20438;-67
2023/09/02 06:31:14;;;;;;;5.97;5.10;;;;;;;;;;5070097;28;20435;-68
2023/09/02 06:33:41;;;;;;;5.30;4.30;;;;;;;;;;5072691;28;20442;-68
2023/09/02 06:36:12;;;;;;;4.40;3.93;;;;;;;;;;5071649;28;20427;-68
2023/09/02 06:38:40;;;;;;;4.82;4.13;;;;;;;;;;5071875;28;20411;-68
2023/09/02 06:41:11;;;;;;;3.50;3.20;;;;;;;;;;5071218;28;20450;-68
2023/09/02 06:43:38;;;;;;;4.10;3.20;;;;;;;;;;5073272;28;20482;-66
2023/09/02 06:46:09;;;;;;;3.63;3.30;;;;;;;;;;5070231;28;20434;-66
2023/09/02 06:48:36;;;;;;;2.67;2.30;;;;;;;;;;5072558;28;20572;-66
2023/09/02 06:51:04;;;;;;;2.40;1.90;;;;;;;;;;5072517;28;20431;-66
2023/09/02 06:53:31;;;;;;;2.90;1.85;;;;;;;;;;5073720;28;20442;-67
2023/09/02 06:55:59;;;;;;;1.88;1.63;;;;;;;;;;5072607;28;20423;-68
2023/09/02 06:58:26;;;;;;;2.20;2.00;;;;;;;;;;5069225;28;20438;-69
2023/09/02 07:00:53;;;;;;;2.53;2.15;;;;;;;;;;5065929;28;20415;-70
2023/09/02 07:03:20;;;;;;;2.33;2.08;;;;;;;;;;5073316;28;20442;-69
2023/09/02 07:05:47;;;;;;;1.92;1.80;;;;;;;;;;5070255;28;20435;-70
2023/09/02 07:08:14;;;;;;;2.60;2.40;;;;;;;;;;5072985;28;20418;-70
2023/09/02 07:10:41;;;;;;;2.60;2.40;;;;;;;;;;5069755;28;20427;-69
2023/09/02 07:13:10;;;;;;;3.20;2.90;;;;;;;;;;5072386;28;20473;-74
2023/09/02 07:15:37;;;;;;;3.10;2.80;;;;;;;;;;5071218;28;20431;-69
2023/09/02 07:18:04;;;;;;;2.53;2.33;;;;;;;;;;5069365;28;20427;-69
2023/09/02 07:20:31;;;;;;;5.60;3.10;;;;;;;;;;5065961;28;20900;-69
2023/09/02 07:22:58;;;;;;;3.60;3.17;;;;;;;;;;5070374;28;20431;-69
2023/09/02 07:25:25;;;;;;;3.25;2.95;;;;;;;;;;5077167;28;20427;-68
2023/09/02 07:27:52;;;;;;;3.10;2.90;;;;;;;;;;5076731;28;20793;-69
2023/09/02 07:30:21;;;;;;;3.88;3.55;;;;;;;;;;5076705;28;20802;-69
2023/09/02 07:32:48;;;;;;;3.70;3.40;;;;;;;;;;5076769;28;20917;-69
2023/09/02 07:35:15;;;;;;;4.90;4.00;;;;;;;;;;5076233;28;20513;-69
2023/09/02 07:37:42;;;;;;;4.30;3.90;;;;;;;;;;5074294;28;20537;-69
2023/09/02 07:40:10;;;;;;;4.78;4.38;;;;;;;;;;5074346;28;20439;-69
2023/09/02 07:42:37;;;;;;;5.33;4.47;;;;;;;;;;5069859;28;20421;-68
2023/09/02 07:45:04;;;;;;;4.75;4.07;;;;;;;;;;5072604;28;20429;-69
2023/09/02 07:47:32;;;;;;;4.30;4.00;;;;;;;;;;5073761;28;20430;-69
2023/09/02 07:49:59;;;;;;;4.40;4.10;;;;;;;;;;5071688;28;20437;-69
2023/09/02 07:52:26;;;;;;;5.65;5.15;;;;;;;;;;5075732;28;20469;-69
2023/09/02 07:54:54;;;;;;;6.45;5.95;;;;;;;;;;5073855;28;20411;-69
2023/09/02 07:57:21;;;;;;;5.50;5.10;;;;;;;;;;5072392;28;20515;-69
2023/09/02 07:59:48;;;;;;;7.00;6.30;;;;;;;;;;5070346;28;20989;-69
2023/09/02 08:02:15;;;;;;;6.40;5.90;;;;;;;;;;5072309;28;20432;-68
2023/09/02 08:04:43;;;;;;;6.30;5.80;;;;;;;;;;5073965;28;20430;-69
2023/09/02 08:07:10;;;;;;;5.67;5.27;;;;;;;;;;5074325;28;20411;-69
2023/09/02 08:09:37;;;;;;;4.90;4.50;;;;;;;;;;5074144;28;20465;-69
2023/09/02 08:12:05;;;;;;;5.18;4.78;;;;;;;;;;5073614;28;20434;-69
2023/09/02 08:14:32;;;;;;;4.10;3.70;;;;;;;;;;5072115;28;20926;-69
2023/09/02 08:16:59;;;;;;;3.60;3.30;;;;;;;;;;5071191;28;20462;-69
2023/09/02 08:19:26;;;;;;;3.10;2.80;;;;;;;;;;5071792;28;20440;-69
2023/09/02 08:21:54;;;;;;;3.03;2.83;;;;;;;;;;5070786;28;20944;-69
2023/09/02 08:24:21;;;;;;;2.93;2.40;;;;;;;;;;5070071;28;20440;-69
2023/09/02 08:26:48;;;;;;;2.40;2.20;;;;;;;;;;5068578;28;20453;-69
2023/09/02 08:29:16;;;;;;;2.30;2.10;;;;;;;;;;5072645;28;20418;-69
2023/09/02 08:31:43;;;;;;;2.60;2.40;;;;;;;;;;5072918;28;20412;-70
2023/09/02 08:34:11;;;;;;;2.20;2.00;;;;;;;;;;5070830;28;20428;-69
2023/09/02 08:36:38;;;;;;;2.95;1.85;;;;;;;;;;5072582;28;20828;-69
2023/09/02 08:39:06;;;;;;;2.22;1.92;;;;;;;;;;5072966;28;20817;-70
2023/09/02 08:41:36;;;;;;;2.33;2.00;;;;;;;;;;5072958;28;20416;-70
2023/09/02 08:44:04;;;;;;;1.95;1.75;;;;;;;;;;5072045;28;20797;-69
2023/09/02 08:46:32;;;;;;;2.10;1.90;;;;;;;;;;5072250;28;20431;-70
2023/09/02 08:49:00;;;;;;;2.70;1.90;;;;;;;;;;5071250;28;20459;-70
2023/09/02 08:51:28;;;;;;;1.95;1.65;;;;;;;;;;5069351;28;20419;-69
2023/09/02 08:53:56;;;;;;;2.00;1.80;;;;;;;;;;5070225;28;20553;-70
2023/09/02 08:56:25;;;;;;;2.08;1.88;;;;;;;;;;5069615;28;20415;-70
2023/09/02 08:58:53;;;;;;;1.70;1.60;;;;;;;;;;5071687;28;20408;-70
2023/09/02 09:01:21;;;;;;;1.60;1.50;;;;;;;;;;5070092;28;20431;-69
2023/09/02 09:03:49;;;;;;;1.50;1.30;;;;;;;;;;5070491;28;20436;-70
2023/09/02 09:06:18;;;;;;;1.80;1.70;;;;;;;;;;5071981;28;20504;-69
2023/09/02 09:08:45;;;;;;;1.50;1.40;;;;;;;;;;5067718;28;20419;-70
2023/09/02 09:11:12;;;;;;;1.77;1.60;;;;;;;;;;5069839;28;20431;-70
2023/09/02 09:13:45;;;;;;;1.80;1.40;;;;;;;;;;5071236;28;20438;-70
2023/09/02 09:16:13;;;;;;;2.10;1.90;;;;;;;;;;5069816;28;20522;-70
2023/09/02 09:18:40;;;;;;;2.30;2.10;;;;;;;;;;5071168;28;20407;-70
2023/09/02 09:21:07;;;;;;;1.70;1.60;;;;;;;;;;5066013;28;20427;-70
2023/09/02 09:23:35;;;;;;;2.20;1.50;;;;;;;;;;5070335;28;20423;-70
2023/09/02 09:26:03;;;;;;;1.40;1.30;;;;;;;;;;5061611;28;20431;-70
2023/09/02 09:28:50;;;;;;;1.50;1.23;;;;;;;;;;5069987;28;20434;-70
2023/09/02 09:31:19;;;;;;;1.90;1.70;;;;;;;;;;5068842;28;20427;-70
2023/09/02 09:33:50;;;;;;;1.50;1.40;;;;;;;;;;5069941;28;20969;-70
2023/09/02 09:36:20;;;;;;;1.70;1.50;;;;;;;;;;5066735;28;20415;-70
2023/09/02 09:38:48;;;;;;;1.95;1.40;;;;;;;;;;5070310;28;20436;-71
2023/09/02 09:41:15;;;;;;;2.10;1.50;;;;;;;;;;5072125;28;20431;-71
2023/09/02 09:43:42;;;;;;;1.60;1.40;;;;;;;;;;5071327;28;20407;-70
2023/09/02 09:46:14;;;;;;;1.10;1.00;;;;;;;;;;5071953;28;20454;-70
2023/09/02 09:48:48;;;;;;;1.60;1.10;;;;;;;;;;5070285;28;20466;-70
2023/09/02 09:51:24;;;;;;;1.40;1.10;;;;;;;;;;5070703;28;20412;-70
2023/09/02 09:53:51;;;;;;;1.20;1.00;;;;;;;;;;5069640;28;20746;-70
2023/09/02 09:56:18;;;;;;;2.40;1.30;;;;;;;;;;5068564;28;20423;-70
2023/09/02 09:58:45;;;;;;;1.40;1.20;;;;;;;;;;5123682;22;20808;-72
2023/09/02 10:01:12;;;;;;;1.30;1.00;;;;;;;;;;5119006;27;20413;-73
2023/09/02 10:03:39;;;;;;;1.48;1.20;;;;;;;;;;5126561;27;20429;-73
2023/09/02 10:06:08;;;;;;;1.60;1.30;;;;;;;;;;5128692;27;20450;-73
2023/09/02 10:08:50;;;;;;;1.85;1.20;;;;;;;;;;5115494;27;20404;-72
2023/09/02 10:11:21;;;;;;;1.10;1.00;;;;;;;;;;5108677;28;20895;-73
2023/09/02 10:13:48;;;;;;;1.35;0.98;;;;;;;;;;5107138;28;20922;-72
2023/09/02 10:16:16;;;;;;;1.20;1.00;;;;;;;;;;5109440;28;20400;-73
2023/09/02 10:18:43;;;;;;;1.38;0.90;;;;;;;;;;5107491;28;20921;-72
2023/09/02 10:21:13;;;;;;;1.60;1.00;;;;;;;;;;5108542;28;20430;-73
2023/09/02 10:23:43;;;;;;;1.23;0.90;;;;;;;;;;5108627;28;20439;-72
2023/09/02 10:26:16;;;;;;;1.20;0.90;;;;;;;;;;5108850;28;20431;-72
2023/09/02 10:28:44;;;;;;;1.27;1.00;;;;;;;;;;5114229;28;20400;-72
2023/09/02 10:31:16;;;;;;;1.50;1.10;;;;;;;;;;5105521;28;20428;-71
2023/09/02 10:33:47;;;;;;;1.80;0.90;;;;;;;;;;5110255;28;20443;-73
2023/09/02 10:36:18;;;;;;;2.07;1.10;;;;;;;;;;5107970;28;20477;-73
2023/09/02 10:38:49;;;;;;;1.23;0.80;;;;;;;;;;5107691;28;20420;-72
2023/09/02 10:41:16;;;;;;;1.10;0.80;;;;;;;;;;5113313;28;20407;-73
2023/09/02 10:43:44;;;;;;;2.47;1.40;;;;;;;;;;5102942;28;20892;-72
2023/09/02 10:46:11;;;;;;;1.33;0.85;;;;;;;;;;5107341;28;20432;-72
2023/09/02 10:48:40;;;;;;;2.90;1.30;;;;;;;;;;5106896;28;20440;-73
2023/09/02 10:51:08;;;;;;;1.73;1.00;;;;;;;;;;5097114;28;20417;-72
2023/09/02 10:53:50;;;;;;;2.30;1.00;;;;;;;;;;5104374;28;20408;-74
2023/09/02 10:56:25;;;;;;;2.30;1.30;;;;;;;;;;5101707;28;20974;-72
2023/09/02 10:58:52;;;;;;;2.13;1.30;;;;;;;;;;5088635;28;20451;-72
2023/09/02 11:01:19;;;;;;;1.60;0.90;;;;;;;;;;5102358;28;20420;-74
2023/09/02 11:03:47;;;;;;;1.77;0.95;;;;;;;;;;5106113;28;20901;-76
2023/09/02 11:06:16;;;;;;;1.45;0.90;;;;;;;;;;5108296;28;20435;-73
2023/09/02 11:08:44;;;;;;;1.77;0.90;;;;;;;;;;5105012;28;20432;-76
2023/09/02 11:11:12;;;;;;;1.73;1.00;;;;;;;;;;5108556;28;20418;-74
2023/09/02 11:13:58;;;;;;;1.50;0.85;;;;;;;;;;5108957;28;20436;-73
2023/09/02 11:16:26;;;;;;;2.03;1.05;;;;;;;;;;5107265;28;20404;-76
2023/09/02 11:18:54;;;;;;;2.60;0.80;;;;;;;;;;5108398;28;20433;-75
2023/09/02 11:21:46;;;;;;;1.60;1.10;;;;;;;;;;5108474;28;20914;-75
2023/09/02 11:24:15;;;;;;;1.60;1.27;;;;;;;;;;5100226;28;21138;-73
2023/09/02 11:26:52;;;;;;;1.20;0.70;;;;;;;;;;5108850;28;20424;-75
2023/09/02 11:29:22;;;;;;;1.90;1.10;;;;;;;;;;5104339;28;20397;-74
2023/09/02 11:31:57;;;;;;;1.20;1.10;;;;;;;;;;5110253;28;20442;-73
2023/09/02 11:34:24;;;;;;;1.50;1.10;;;;;;;;;;5105066;28;20439;-75
2023/09/02 11:36:52;;;;;;;2.20;1.20;;;;;;;;;;5109872;28;20439;-75
2023/09/02 11:39:19;;;;;;;2.00;0.90;;;;;;;;;;5111176;28;20436;-73
2023/09/02 11:41:46;;;;;;;2.03;0.90;;;;;;;;;;5110894;28;20453;-75
2023/09/02 11:44:14;;;;;;;2.30;0.80;;;;;;;;;;5111049;28;20435;-75
2023/09/02 11:46:42;;;;;;;3.55;1.00;;;;;;;;;;5109208;27;20424;-75
2023/09/02 11:49:14;;;;;;;1.55;0.73;;;;;;;;;;5108650;27;20851;-75
2023/09/02 11:51:41;;;;;;;1.58;1.13;;;;;;;;;;5110533;27;20416;-74
2023/09/02 11:54:08;;;;;;;1.35;0.90;;;;;;;;;;5106990;28;20428;-73
2023/09/02 11:56:36;;;;;;;1.40;1.00;;;;;;;;;;5110677;28;20755;-75
2023/09/02 11:59:03;;;;;;;1.50;1.10;;;;;;;;;;5110402;28;20915;-74
2023/09/02 12:01:30;;;;;;;1.40;1.00;;;;;;;;;;5107920;28;20424;-73
2023/09/02 12:03:57;;;;;;;1.70;1.00;;;;;;;;;;5109951;27;20428;-74
2023/09/02 12:06:30;;;;;;;1.60;0.90;;;;;;;;;;5110831;28;20424;-74
2023/09/02 12:08:57;;;;;;;2.00;1.10;;;;;;;;;;5109147;28;20447;-74
2023/09/02 12:11:25;;;;;;;2.20;1.10;;;;;;;;;;5096424;28;20416;-72
2023/09/02 12:13:52;;;;;;;1.27;0.88;;;;;;;;;;5105136;27;20415;-76
2023/09/02 12:16:19;;;;;;;1.73;1.20;;;;;;;;;;5113246;27;20427;-75
2023/09/02 12:18:46;;;;;;;2.20;1.00;;;;;;;;;;5119246;28;20577;-74
2023/09/02 12:21:13;;;;;;;2.03;1.10;;;;;;;;;;5104492;28;20454;-72
2023/09/02 12:23:42;;;;;;;1.70;1.00;;;;;;;;;;5112631;27;20422;-75
2023/09/02 12:26:09;;;;;;;1.20;0.90;;;;;;;;;;5110382;28;20889;-72
2023/09/02 12:28:36;;;;;;;1.40;1.00;;;;;;;;;;5108453;28;20459;-71
2023/09/02 12:31:04;;;;;;;1.73;0.93;;;;;;;;;;5111613;28;20416;-74
2023/09/02 12:33:31;;;;;;;2.20;0.80;;;;;;;;;;5109545;28;20999;-73
2023/09/02 12:35:58;;;;;;;1.80;0.90;;;;;;;;;;5101843;28;20413;-76
2023/09/02 12:38:25;;;;;;;2.55;0.80;;;;;;;;;;5116659;27;20854;-74
2023/09/02 12:40:54;;;;;;;2.10;1.00;;;;;;;;;;5118796;28;20428;-75
2023/09/02 12:43:26;;;;;;;1.53;1.07;;;;;;;;;;5118241;28;20424;-75
2023/09/02 12:45:53;;;;;;;1.50;0.90;;;;;;;;;;5112463;28;20486;-72
2023/09/02 12:48:20;;;;;;;0.90;0.80;;;;;;;;;;5105376;27;20584;-72
2023/09/02 12:50:47;;;;;;;2.20;1.10;;;;;;;;;;5105114;28;20433;-72
2023/09/02 12:53:15;;;;;;;0.90;0.60;;;;;;;;;;5110296;28;20496;-73
2023/09/02 12:55:42;;;;;;;1.10;0.90;;;;;;;;;;5109865;28;20424;-71
2023/09/02 12:58:11;;;;;;;2.20;1.30;;;;;;;;;;5105257;27;20431;-70
2023/09/02 13:00:38;;;;;;;1.20;1.10;;;;;;;;;;5109540;28;20408;-72
2023/09/02 13:03:05;;;;;;;2.03;1.00;;;;;;;;;;5114307;28;20424;-71
2023/09/02 13:05:32;;;;;;;1.20;1.10;;;;;;;;;;5111208;28;20439;-71
2023/09/02 13:07:59;;;;;;;1.50;0.93;;;;;;;;;;5112380;28;20416;-69
2023/09/02 13:10:27;;;;;;;1.50;1.08;;;;;;;;;;5114036;28;20508;-70
2023/09/02 13:12:54;;;;;;;1.60;1.00;;;;;;;;;;5113212;28;20424;-72
2023/09/02 13:15:24;;;;;;;1.60;1.20;;;;;;;;;;5118558;27;20423;-71
2023/09/02 13:17:52;;;;;;;1.60;1.20;;;;;;;;;;5112852;28;20918;-72
2023/09/02 13:20:19;;;;;;;1.60;1.20;;;;;;;;;;5114344;28;20945;-72
2023/09/02 13:22:47;;;;;;;1.42;1.00;;;;;;;;;;5105029;28;20479;-70
2023/09/02 13:25:15;;;;;;;2.15;1.00;;;;;;;;;;5104267;28;20446;-72
2023/09/02 13:27:43;;;;;;;2.10;1.00;;;;;;;;;;5108384;28;20424;-73
2023/09/02 13:30:11;;;;;;;1.48;0.90;;;;;;;;;;5103093;28;20407;-72
2023/09/02 13:32:39;;;;;;;2.20;1.50;;;;;;;;;;5106054;28;20438;-69
2023/09/02 13:35:09;;;;;;;2.65;1.50;;;;;;;;;;5109462;28;20404;-72
2023/09/02 13:37:36;;;;;;;2.08;1.40;;;;;;;;;;5107613;28;20439;-71
2023/09/02 13:40:20;;;;;;;1.40;1.20;;;;;;;;;;5109531;28;20419;-73
2023/09/02 13:42:47;;;;;;;2.00;1.20;;;;;;;;;;5109569;28;20412;-73
2023/09/02 13:45:22;;;;;;;1.23;1.00;;;;;;;;;;5109815;28;20412;-72
2023/09/02 13:47:51;;;;;;;1.75;1.10;;;;;;;;;;5106755;28;20424;-72
2023/09/02 13:50:18;;;;;;;1.40;1.30;;;;;;;;;;5108067;28;20424;-72
2023/09/02 13:52:50;;;;;;;2.15;1.20;;;;;;;;;;5108447;28;20424;-71
2023/09/02 13:55:17;;;;;;;2.00;1.30;;;;;;;;;;5109486;28;20989;-72
2023/09/02 13:57:44;;;;;;;2.80;1.13;;;;;;;;;;5108701;28;20431;-71
2023/09/02 14:00:17;;;;;;;1.52;1.00;;;;;;;;;;5104566;28;20917;-71
2023/09/02 14:02:45;;;;;;;1.10;1.00;;;;;;;;;;5124091;28;20419;-71
2023/09/02 14:05:15;;;;;;;2.10;1.60;;;;;;;;;;5107011;28;20435;-70
2023/09/02 14:07:44;;;;;;;2.30;1.70;;;;;;;;;;5101877;28;20419;-72
2023/09/02 14:10:12;;;;;;;1.50;1.30;;;;;;;;;;5105146;28;20426;-72
2023/09/02 14:12:40;;;;;;;1.60;1.27;;;;;;;;;;5105483;28;20420;-72
2023/09/02 14:15:08;;;;;;;1.60;1.30;;;;;;;;;;5108393;28;20910;-72
2023/09/02 14:17:35;;;;;;;1.40;1.15;;;;;;;;;;5109548;28;20428;-73
2023/09/02 14:20:02;;;;;;;1.98;1.27;;;;;;;;;;5127877;28;20432;-73
2023/09/02 14:22:30;;;;;;;1.40;1.30;;;;;;;;;;5101580;28;20416;-70
2023/09/02 14:24:57;;;;;;;1.55;1.20;;;;;;;;;;5103889;28;20489;-69
2023/09/02 14:27:24;;;;;;;1.50;1.10;;;;;;;;;;5102575;28;20428;-72
2023/09/02 14:29:51;;;;;;;2.10;1.20;;;;;;;;;;5107875;28;20431;-71
2023/09/02 14:32:18;;;;;;;2.28;1.40;;;;;;;;;;5105804;28;20441;-70
2023/09/02 14:34:46;;;;;;;1.30;1.20;;;;;;;;;;5107249;28;20432;-71
2023/09/02 14:37:14;;;;;;;1.63;1.27;;;;;;;;;;5101936;28;20404;-71
2023/09/02 14:39:42;;;;;;;1.85;1.50;;;;;;;;;;5113020;28;20404;-71
2023/09/02 14:42:09;;;;;;;1.80;1.40;;;;;;;;;;5107335;28;20423;-71
2023/09/02 14:44:36;;;;;;;1.80;1.30;;;;;;;;;;5102869;28;20429;-72
2023/09/02 14:47:04;;;;;;;1.40;1.00;;;;;;;;;;5108878;28;20786;-72